Allendale, Michigan
Current Conditions -  °F | °C
As of 2:53 AM on Saturday 29 Nov 2014 (Local Time) from KBIV Reporting Station
Scattered Clouds Scattered Clouds  
Wind Chill: 26°   Ceiling: Unl
Heat Index: 32°   Visibility: 10mi
Dew Point: 24°   Wind: 7mph
Humidity: 73%   Direction: 140°SE
Pressure: 29.91"   Gusts: NA
Location:  42.97°N, 85.95°W
Report Text: KBIV 290753Z AUTO 14006KT 10SM SCT100 00/M04 A2991 RMK AO2 UPB17E27 SLP138 P0000 T00001044
Loading
Personal Weather Stations






























Interactive Weather Map New forecast layout! Learn more

10-Day Weather Forecast

Advertisements
Track Severe Weather on mobile